Nautilus — OUYX2 — position and weather

sailwx.info

Track history (hours):
 
Tides and Currents Weather Stations Pressure Air Temp Water Temp Dewpoint Dewpoint Depression Visibility Wind Speed Wind Dir Waves Ship Positions

Nautilus

Last reported at 2017-Jan-21 01:34 UTC. Time now 2017-Jan-21 02:18 UTC.
Position N 56°00' E 012°40'.

Length 120 m; draft 5.2 m.

Type: Ship. MMSI: 219425000.

Date/timePositionNaut miles runAvg speedWind from/ knotsBaromVisibWave heightAir tempDewpointWater temp
2017-Jan-21 01:34N 56°00' E 012°40'1 1.5
2017-Jan-21 00:32N 56°02' E 012°42'0 0.0
2017-Jan-20 23:32N 56°02' E 012°42'0 0.0
2017-Jan-20 22:32N 56°02' E 012°42'0 0.0
2017-Jan-20 21:32N 56°02' E 012°42'0 0.0
2017-Jan-20 20:32N 56°02' E 012°42'0 0.0
2017-Jan-20 19:32N 56°02' E 012°42'0 0.0
2017-Jan-20 18:32N 56°02' E 012°42'0 0.0
2017-Jan-20 17:32N 56°02' E 012°42'0 0.0
2017-Jan-20 16:32N 56°02' E 012°42'0 0.0
2017-Jan-20 15:32N 56°02' E 012°42'0 0.0
2017-Jan-20 14:32N 56°02' E 012°42'0 0.5
2017-Jan-20 13:33N 56°01' E 012°42'6 6.2
2017-Jan-20 12:33N 56°05' E 012°34'9 9.2
2017-Jan-20 11:33N 56°13' E 012°25'4911.9
2017-Jan-20 07:25N 57°01' E 012°00'1011.3
2017-Jan-20 06:33N 57°10' E 011°55'1111.3
2017-Jan-20 05:33N 57°20' E 011°45'1111.1
2017-Jan-20 04:33N 57°28' E 011°32'1110.8
2017-Jan-20 03:33N 57°38' E 011°23'1111.4
2017-Jan-20 02:33N 57°49' E 011°20'10 9.6
2017-Jan-20 01:33N 57°59' E 011°17'9 9.4
2017-Jan-20 00:33N 58°08' E 011°14'9 8.9
2017-Jan-19 23:33N 58°17' E 011°17'7 0.4
2017-Jan-19 05:33N 58°21' E 011°26'6 6.3
2017-Jan-19 04:34N 58°17' E 011°17'6 4.9
2017-Jan-19 03:21N 58°11' E 011°15'0 0.0
2017-Jan-19 01:27N 58°11' E 011°15'0 0.0
2017-Jan-19 00:33N 58°11' E 011°15'0 0.0
2017-Jan-18 23:30N 58°11' E 011°15'0 0.0
2017-Jan-18 22:27N 58°11' E 011°15'0 0.0
2017-Jan-18 21:33N 58°11' E 011°15'0 0.0
2017-Jan-18 20:24N 58°11' E 011°15'0 0.0
2017-Jan-18 19:27N 58°11' E 011°15'0 0.0
2017-Jan-18 18:33N 58°11' E 011°15'0 0.1
2017-Jan-18 16:30N 58°11' E 011°15'0 0.0
2017-Jan-18 15:21N 58°11' E 011°15'0 0.0
2017-Jan-18 14:33N 58°11' E 011°15'0 0.0
2017-Jan-18 13:15N 58°11' E 011°15'0 0.0
2017-Jan-18 12:33N 58°11' E 011°15'0 0.0
2017-Jan-18 11:24N 58°11' E 011°15'0 0.0
2017-Jan-18 10:27N 58°11' E 011°15'1 1.5
2017-Jan-18 09:32N 58°10' E 011°14'1111.2
2017-Jan-18 08:33N 57°59' E 011°17'1010.2
2017-Jan-18 07:33N 57°49' E 011°20'1010.2
2017-Jan-18 06:33N 57°39' E 011°23'1010.4
2017-Jan-18 05:33N 57°30' E 011°32'10 9.8
2017-Jan-18 04:33N 57°22' E 011°42'10 9.9
2017-Jan-18 03:34N 57°14' E 011°53'10 9.9
2017-Jan-18 02:33N 57°04' E 011°58'5010.0
2017-Jan-17 21:33N 56°16' E 012°25'1010.4
2017-Jan-17 20:34N 56°07' E 012°34'1010.1
2017-Jan-17 19:34N 55°58' E 012°43'9 9.3
2017-Jan-17 18:34N 55°49' E 012°46'9 9.4
2017-Jan-17 17:34N 55°41' E 012°55'9 8.7
2017-Jan-17 16:33N 55°33' E 012°48'1211.7
2017-Jan-17 15:34N 55°22' E 012°41'1010.4
2017-Jan-17 14:34N 55°16' E 012°55'1212.4
2017-Jan-17 13:33N 55°15' E 013°17'10 9.9
2017-Jan-17 12:33N 55°15' E 013°34'10 9.3
2017-Jan-17 11:31N 55°14' E 013°51'1010.1
2017-Jan-17 10:32N 55°14' E 014°09'9 9.0
2017-Jan-17 09:33N 55°18' E 014°22'1110.7
2017-Jan-17 08:33N 55°27' E 014°34'1110.6
2017-Jan-17 07:34N 55°32' E 014°50'1312.6
2017-Jan-17 06:33N 55°38' E 015°10'286 9.9
2017-Jan-16 01:32N 59°43' E 019°46'1010.2
2017-Jan-16 00:33N 59°51' E 019°34'10 9.7
2017-Jan-15 23:33N 59°58' E 019°21'10 9.6
2017-Jan-15 22:33N 60°06' E 019°08'9 9.1
2017-Jan-15 21:33N 60°14' E 019°00'8 0.2
2017-Jan-14 11:08N 60°08' E 019°11'813.3
2017-Jan-14 10:33N 60°02' E 019°21'1513.1
2017-Jan-14 09:24N 59°51' E 019°40'72 5.6
2017-Jan-13 20:33N 59°15' E 017°35'1212.2
2017-Jan-13 19:34N 59°26' E 017°23'1110.7
2017-Jan-13 18:34N 59°32' E 017°06'8 8.3
2017-Jan-13 17:33N 59°30' E 016°50'10 8.9
2017-Jan-13 16:25N 59°36' E 016°33'4 0.3
2017-Jan-13 04:09N 59°32' E 016°36'711.3
2017-Jan-13 03:29N 59°30' E 016°50'7 7.8
2017-Jan-13 02:33N 59°32' E 017°04'1111.1
2017-Jan-13 01:33N 59°26' E 017°23'1312.7
2017-Jan-13 00:33N 59°15' E 017°35'24910.7
2017-Jan-12 01:15N 55°25' E 014°39'913.2
2017-Jan-12 00:33N 55°18' E 014°29'1313.2
2017-Jan-11 23:33N 55°07' E 014°15'5213.1
2017-Jan-11 19:34N 54°47' E 012°51'1413.6
2017-Jan-11 18:33N 54°40' E 012°30'3012.4
2017-Jan-11 16:08N 54°14' E 012°05'5 7.5
2017-Jan-11 15:30N 54°10' E 012°08'0 0.3
2017-Jan-11 14:33N 54°09' E 012°08'0 0.0
2017-Jan-11 13:27N 54°09' E 012°08'0 0.0
2017-Jan-11 12:33N 54°09' E 012°08'0 0.0
2017-Jan-11 11:33N 54°09' E 012°08'0 0.0
2017-Jan-11 10:33N 54°09' E 012°08'0 0.0
2017-Jan-11 09:33N 54°09' E 012°08'0 0.0
2017-Jan-11 08:24N 54°09' E 012°08'0 0.0
2017-Jan-11 07:33N 54°09' E 012°08'0 0.0
2017-Jan-11 06:24N 54°09' E 012°08'0 0.0
2017-Jan-11 05:30N 54°09' E 012°08'0 0.0
2017-Jan-11 04:33N 54°09' E 012°08'0 0.0
2017-Jan-11 03:24N 54°09' E 012°08'0 0.0
2017-Jan-11 02:33N 54°09' E 012°08'  
Track history (hours):
 
Tides and Currents Weather Stations Pressure Air Temp Water Temp Dewpoint Dewpoint Depression Visibility Wind Speed Wind Dir Waves Ship Positions

Nautilus

Last reported at 2017-Jan-21 01:34 UTC. Time now 2017-Jan-21 02:18 UTC.
Position N 56°00' E 012°40'.

Length 120 m; draft 5.2 m.

Type: Ship. MMSI: 219425000.

Date/timePositionNaut miles runAvg speedWind from/ knotsBaromVisibWave heightAir tempDewpointWater temp
2017-Jan-21 01:34N 56°00' E 012°40'1 1.5
2017-Jan-21 00:32N 56°02' E 012°42'0 0.0
2017-Jan-20 23:32N 56°02' E 012°42'0 0.0
2017-Jan-20 22:32N 56°02' E 012°42'0 0.0
2017-Jan-20 21:32N 56°02' E 012°42'0 0.0
2017-Jan-20 20:32N 56°02' E 012°42'0 0.0
2017-Jan-20 19:32N 56°02' E 012°42'0 0.0
2017-Jan-20 18:32N 56°02' E 012°42'0 0.0
2017-Jan-20 17:32N 56°02' E 012°42'0 0.0
2017-Jan-20 16:32N 56°02' E 012°42'0 0.0
2017-Jan-20 15:32N 56°02' E 012°42'0 0.0
2017-Jan-20 14:32N 56°02' E 012°42'0 0.5
2017-Jan-20 13:33N 56°01' E 012°42'6 6.2
2017-Jan-20 12:33N 56°05' E 012°34'9 9.2
2017-Jan-20 11:33N 56°13' E 012°25'4911.9
2017-Jan-20 07:25N 57°01' E 012°00'1011.3
2017-Jan-20 06:33N 57°10' E 011°55'1111.3
2017-Jan-20 05:33N 57°20' E 011°45'1111.1
2017-Jan-20 04:33N 57°28' E 011°32'1110.8
2017-Jan-20 03:33N 57°38' E 011°23'1111.4
2017-Jan-20 02:33N 57°49' E 011°20'10 9.6
2017-Jan-20 01:33N 57°59' E 011°17'9 9.4
2017-Jan-20 00:33N 58°08' E 011°14'9 8.9
2017-Jan-19 23:33N 58°17' E 011°17'7 0.4
2017-Jan-19 05:33N 58°21' E 011°26'6 6.3
2017-Jan-19 04:34N 58°17' E 011°17'6 4.9
2017-Jan-19 03:21N 58°11' E 011°15'0 0.0
2017-Jan-19 01:27N 58°11' E 011°15'0 0.0
2017-Jan-19 00:33N 58°11' E 011°15'0 0.0
2017-Jan-18 23:30N 58°11' E 011°15'0 0.0
2017-Jan-18 22:27N 58°11' E 011°15'0 0.0
2017-Jan-18 21:33N 58°11' E 011°15'0 0.0
2017-Jan-18 20:24N 58°11' E 011°15'0 0.0
2017-Jan-18 19:27N 58°11' E 011°15'0 0.0
2017-Jan-18 18:33N 58°11' E 011°15'0 0.1
2017-Jan-18 16:30N 58°11' E 011°15'0 0.0
2017-Jan-18 15:21N 58°11' E 011°15'0 0.0
2017-Jan-18 14:33N 58°11' E 011°15'0 0.0
2017-Jan-18 13:15N 58°11' E 011°15'0 0.0
2017-Jan-18 12:33N 58°11' E 011°15'0 0.0
2017-Jan-18 11:24N 58°11' E 011°15'0 0.0
2017-Jan-18 10:27N 58°11' E 011°15'1 1.5
2017-Jan-18 09:32N 58°10' E 011°14'1111.2
2017-Jan-18 08:33N 57°59' E 011°17'1010.2
2017-Jan-18 07:33N 57°49' E 011°20'1010.2
2017-Jan-18 06:33N 57°39' E 011°23'1010.4
2017-Jan-18 05:33N 57°30' E 011°32'10 9.8
2017-Jan-18 04:33N 57°22' E 011°42'10 9.9
2017-Jan-18 03:34N 57°14' E 011°53'10 9.9
2017-Jan-18 02:33N 57°04' E 011°58'5010.0
2017-Jan-17 21:33N 56°16' E 012°25'1010.4
2017-Jan-17 20:34N 56°07' E 012°34'1010.1
2017-Jan-17 19:34N 55°58' E 012°43'9 9.3
2017-Jan-17 18:34N 55°49' E 012°46'9 9.4
2017-Jan-17 17:34N 55°41' E 012°55'9 8.7
2017-Jan-17 16:33N 55°33' E 012°48'1211.7
2017-Jan-17 15:34N 55°22' E 012°41'1010.4
2017-Jan-17 14:34N 55°16' E 012°55'1212.4
2017-Jan-17 13:33N 55°15' E 013°17'10 9.9
2017-Jan-17 12:33N 55°15' E 013°34'10 9.3
2017-Jan-17 11:31N 55°14' E 013°51'1010.1
2017-Jan-17 10:32N 55°14' E 014°09'9 9.0
2017-Jan-17 09:33N 55°18' E 014°22'1110.7
2017-Jan-17 08:33N 55°27' E 014°34'1110.6
2017-Jan-17 07:34N 55°32' E 014°50'1312.6
2017-Jan-17 06:33N 55°38' E 015°10'286 9.9
2017-Jan-16 01:32N 59°43' E 019°46'1010.2
2017-Jan-16 00:33N 59°51' E 019°34'10 9.7
2017-Jan-15 23:33N 59°58' E 019°21'10 9.6
2017-Jan-15 22:33N 60°06' E 019°08'9 9.1
2017-Jan-15 21:33N 60°14' E 019°00'8 0.2
2017-Jan-14 11:08N 60°08' E 019°11'813.3
2017-Jan-14 10:33N 60°02' E 019°21'1513.1
2017-Jan-14 09:24N 59°51' E 019°40'72 5.6
2017-Jan-13 20:33N 59°15' E 017°35'1212.2
2017-Jan-13 19:34N 59°26' E 017°23'1110.7
2017-Jan-13 18:34N 59°32' E 017°06'8 8.3
2017-Jan-13 17:33N 59°30' E 016°50'10 8.9
2017-Jan-13 16:25N 59°36' E 016°33'4 0.3
2017-Jan-13 04:09N 59°32' E 016°36'711.3
2017-Jan-13 03:29N 59°30' E 016°50'7 7.8
2017-Jan-13 02:33N 59°32' E 017°04'1111.1
2017-Jan-13 01:33N 59°26' E 017°23'1312.7
2017-Jan-13 00:33N 59°15' E 017°35'24910.7
2017-Jan-12 01:15N 55°25' E 014°39'913.2
2017-Jan-12 00:33N 55°18' E 014°29'1313.2
2017-Jan-11 23:33N 55°07' E 014°15'5213.1
2017-Jan-11 19:34N 54°47' E 012°51'1413.6
2017-Jan-11 18:33N 54°40' E 012°30'3012.4
2017-Jan-11 16:08N 54°14' E 012°05'5 7.5
2017-Jan-11 15:30N 54°10' E 012°08'0 0.3
2017-Jan-11 14:33N 54°09' E 012°08'0 0.0
2017-Jan-11 13:27N 54°09' E 012°08'0 0.0
2017-Jan-11 12:33N 54°09' E 012°08'0 0.0
2017-Jan-11 11:33N 54°09' E 012°08'0 0.0
2017-Jan-11 10:33N 54°09' E 012°08'0 0.0
2017-Jan-11 09:33N 54°09' E 012°08'0 0.0
2017-Jan-11 08:24N 54°09' E 012°08'0 0.0
2017-Jan-11 07:33N 54°09' E 012°08'0 0.0
2017-Jan-11 06:24N 54°09' E 012°08'0 0.0
2017-Jan-11 05:30N 54°09' E 012°08'0 0.0
2017-Jan-11 04:33N 54°09' E 012°08'0 0.0
2017-Jan-11 03:24N 54°09' E 012°08'0 0.0
2017-Jan-11 02:33N 54°09' E 012°08'  

Dump ship's entire track history